Time;durP1;ratioP1;P1;durP2;ratioP2;P2;SDS_P1;SDS_P2;PMS_P1;PMS_P2;Temp;Humidity;BMP_temperature;BMP_pressure;BME280_temperature;BME280_humidity;BME280_pressure;Samples;Min_cycle;Max_cycle;Signal;HPM_P1;HPM_P2
2023/05/08 00:01:50;;;;;;;6.93;1.70;;;;;;;;;;4920136;28;20053;-67
2023/05/08 00:04:19;;;;;;;6.60;1.65;;;;;;;;;;4927557;28;20038;-67
2023/05/08 00:06:45;;;;;;;7.88;1.65;;;;;;;;;;4935402;28;20019;-68
2023/05/08 00:09:11;;;;;;;6.00;1.60;;;;;;;;;;4935352;28;20168;-68
2023/05/08 00:11:37;;;;;;;5.88;1.30;;;;;;;;;;4935202;28;20039;-67
2023/05/08 00:14:04;;;;;;;8.65;1.65;;;;;;;;;;4941015;28;20189;-67
2023/05/08 00:16:31;;;;;;;6.57;1.42;;;;;;;;;;4944173;28;20531;-67
2023/05/08 00:18:58;;;;;;;8.02;1.90;;;;;;;;;;4941025;28;20126;-68
2023/05/08 00:21:24;;;;;;;8.73;1.70;;;;;;;;;;4942883;28;20047;-67
2023/05/08 00:23:50;;;;;;;6.82;1.48;;;;;;;;;;4939517;28;20456;-68
2023/05/08 00:26:17;;;;;;;7.90;1.77;;;;;;;;;;4926309;28;20444;-68
2023/05/08 00:28:43;;;;;;;6.70;1.85;;;;;;;;;;4939218;28;20177;-67
2023/05/08 00:31:10;;;;;;;7.07;1.90;;;;;;;;;;4930226;28;20058;-68
2023/05/08 00:33:36;;;;;;;6.70;1.73;;;;;;;;;;4937279;28;20027;-67
2023/05/08 00:36:03;;;;;;;6.32;1.50;;;;;;;;;;4942701;28;20636;-69
2023/05/08 00:38:30;;;;;;;6.63;1.60;;;;;;;;;;4940107;28;20756;-68
2023/05/08 00:40:56;;;;;;;6.28;1.58;;;;;;;;;;4940804;28;20049;-68
2023/05/08 00:43:27;;;;;;;8.02;1.60;;;;;;;;;;4943619;28;20035;-68
2023/05/08 00:45:54;;;;;;;6.47;1.70;;;;;;;;;;4923701;28;20500;-68
2023/05/08 00:48:22;;;;;;;7.45;1.45;;;;;;;;;;4925961;28;20041;-68
2023/05/08 00:50:48;;;;;;;7.30;1.40;;;;;;;;;;4943247;28;20068;-69
2023/05/08 00:53:14;;;;;;;7.18;1.50;;;;;;;;;;4943166;28;20030;-67
2023/05/08 00:55:41;;;;;;;6.78;1.60;;;;;;;;;;4942683;28;20738;-67
2023/05/08 00:58:08;;;;;;;5.88;1.25;;;;;;;;;;4943454;28;20482;-68
2023/05/08 01:00:34;;;;;;;6.45;1.60;;;;;;;;;;4926020;28;20056;-67
2023/05/08 01:03:00;;;;;;;8.45;1.20;;;;;;;;;;4929657;28;20042;-67
2023/05/08 01:05:27;;;;;;;5.57;1.15;;;;;;;;;;4945735;28;20101;-68
2023/05/08 01:07:53;;;;;;;6.72;1.40;;;;;;;;;;4942059;28;20030;-67
2023/05/08 01:10:19;;;;;;;5.43;1.40;;;;;;;;;;4942550;28;20037;-67
2023/05/08 01:12:48;;;;;;;5.25;1.38;;;;;;;;;;4925489;28;20451;-68
2023/05/08 01:15:18;;;;;;;5.95;1.35;;;;;;;;;;4947850;28;20056;-67
2023/05/08 01:17:57;;;;;;;5.03;1.02;;;;;;;;;;4936512;28;20857;-67
2023/05/08 01:20:26;;;;;;;4.40;1.05;;;;;;;;;;4947221;28;20597;-68
2023/05/08 01:23:12;;;;;;;4.15;1.05;;;;;;;;;;4945050;28;20105;-68
2023/05/08 01:26:02;;;;;;;3.83;0.95;;;;;;;;;;4932680;28;20069;-68
2023/05/08 01:28:29;;;;;;;4.97;1.52;;;;;;;;;;4947499;28;20038;-68
2023/05/08 01:30:55;;;;;;;4.82;1.30;;;;;;;;;;4924392;28;20315;-67
2023/05/08 01:33:34;;;;;;;4.97;1.23;;;;;;;;;;4929056;28;20499;-68
2023/05/08 01:36:09;;;;;;;5.38;1.50;;;;;;;;;;4945618;28;20519;-67
2023/05/08 01:38:51;;;;;;;6.82;1.42;;;;;;;;;;4941282;28;20106;-67
2023/05/08 01:41:24;;;;;;;8.50;1.55;;;;;;;;;;4943638;28;20027;-67
2023/05/08 01:43:56;;;;;;;7.47;1.52;;;;;;;;;;4941311;28;20023;-68
2023/05/08 01:46:25;;;;;;;5.13;1.35;;;;;;;;;;4945442;28;20339;-68
2023/05/08 01:49:01;;;;;;;6.53;1.52;;;;;;;;;;4919009;28;22171;-67
2023/05/08 01:51:28;;;;;;;6.43;1.33;;;;;;;;;;4948432;28;20033;-68
2023/05/08 01:54:00;;;;;;;6.30;1.40;;;;;;;;;;4908748;28;20698;-67
2023/05/08 01:56:28;;;;;;;9.82;2.33;;;;;;;;;;4947672;28;20031;-69
2023/05/08 01:58:56;;;;;;;7.35;1.60;;;;;;;;;;4925623;28;20532;-67
2023/05/08 02:01:23;;;;;;;6.68;1.65;;;;;;;;;;4946690;28;20046;-67
2023/05/08 02:03:50;;;;;;;6.13;1.50;;;;;;;;;;4924427;28;20034;-69
2023/05/08 02:06:17;;;;;;;6.60;1.40;;;;;;;;;;4946032;28;20101;-68
2023/05/08 02:08:45;;;;;;;6.57;1.20;;;;;;;;;;4938570;28;20027;-68
2023/05/08 02:11:12;;;;;;;6.13;1.52;;;;;;;;;;4941723;28;20468;-69
2023/05/08 02:13:39;;;;;;;6.35;1.35;;;;;;;;;;4926471;28;20031;-69
2023/05/08 02:16:06;;;;;;;7.15;1.58;;;;;;;;;;4939931;28;20104;-69
2023/05/08 02:18:33;;;;;;;6.30;1.50;;;;;;;;;;4945554;28;20019;-69
2023/05/08 02:21:01;;;;;;;5.00;1.33;;;;;;;;;;4927125;28;20233;-68
2023/05/08 02:23:28;;;;;;;6.60;1.38;;;;;;;;;;4941474;28;20026;-66
2023/05/08 02:25:55;;;;;;;4.30;1.23;;;;;;;;;;4939648;28;20031;-67
2023/05/08 02:28:22;;;;;;;3.65;1.00;;;;;;;;;;4945384;28;20695;-67
2023/05/08 02:30:49;;;;;;;6.45;1.20;;;;;;;;;;4939997;28;20166;-67
2023/05/08 02:33:16;;;;;;;5.10;1.15;;;;;;;;;;4944647;28;20045;-67
2023/05/08 02:35:44;;;;;;;4.57;1.30;;;;;;;;;;4925346;28;20073;-67
2023/05/08 02:38:11;;;;;;;5.00;1.30;;;;;;;;;;4923839;28;20497;-67
2023/05/08 02:40:43;;;;;;;5.32;1.40;;;;;;;;;;4923367;28;20042;-67
2023/05/08 02:43:10;;;;;;;7.18;1.65;;;;;;;;;;4942771;28;20034;-67
2023/05/08 02:45:43;;;;;;;4.82;1.30;;;;;;;;;;4937513;28;20591;-67
2023/05/08 02:48:12;;;;;;;7.45;1.67;;;;;;;;;;4940704;28;20453;-67
2023/05/08 02:50:43;;;;;;;5.10;1.50;;;;;;;;;;4941530;28;20435;-68
2023/05/08 02:53:12;;;;;;;5.57;1.58;;;;;;;;;;4948705;28;20556;-67
2023/05/08 02:55:38;;;;;;;5.45;1.48;;;;;;;;;;4924310;28;20050;-69
2023/05/08 02:58:04;;;;;;;;;;;;;;;;;;4926309;28;20066;-68
2023/05/08 03:00:37;;;;;;;5.35;1.70;;;;;;;;;;4942598;28;20348;-68
2023/05/08 03:03:08;;;;;;;5.05;1.27;;;;;;;;;;4923672;28;20038;-68
2023/05/08 03:05:35;;;;;;;4.22;1.27;;;;;;;;;;4942208;28;20594;-68
2023/05/08 03:08:10;;;;;;;5.43;1.40;;;;;;;;;;4925008;28;20038;-67
2023/05/08 03:10:39;;;;;;;5.18;1.05;;;;;;;;;;4935392;28;20759;-68
2023/05/08 03:13:08;;;;;;;6.20;1.30;;;;;;;;;;4924866;28;20768;-67
2023/05/08 03:15:49;;;;;;;4.35;1.02;;;;;;;;;;4939334;28;20105;-68
2023/05/08 03:18:20;;;;;;;4.60;1.30;;;;;;;;;;4940424;28;20442;-68
2023/05/08 03:20:49;;;;;;;5.65;1.20;;;;;;;;;;4939757;28;20035;-68
2023/05/08 03:23:16;;;;;;;3.92;1.10;;;;;;;;;;4928398;28;20039;-68
2023/05/08 03:25:43;;;;;;;4.72;1.15;;;;;;;;;;4942218;28;20063;-68
2023/05/08 03:28:09;;;;;;;8.48;1.10;;;;;;;;;;4944472;28;20051;-68
2023/05/08 03:30:40;;;;;;;4.15;0.90;;;;;;;;;;4940000;28;20473;-68
2023/05/08 03:33:06;;;;;;;4.43;0.80;;;;;;;;;;4943197;28;20459;-68
2023/05/08 03:35:38;;;;;;;5.45;1.15;;;;;;;;;;4940948;28;20035;-68
2023/05/08 03:38:05;;;;;;;3.78;1.10;;;;;;;;;;4942358;28;20485;-68
2023/05/08 03:40:35;;;;;;;6.30;1.20;;;;;;;;;;4942817;28;20589;-68
2023/05/08 03:43:02;;;;;;;5.72;1.30;;;;;;;;;;4939770;28;20042;-68
2023/05/08 03:45:30;;;;;;;4.63;1.15;;;;;;;;;;4924829;28;20437;-68
2023/05/08 03:47:56;;;;;;;2.13;0.80;;;;;;;;;;4937972;28;20261;-68
2023/05/08 03:50:23;;;;;;;2.85;0.88;;;;;;;;;;4942839;28;20034;-68
2023/05/08 03:52:50;;;;;;;4.00;0.90;;;;;;;;;;4939066;28;20504;-68
2023/05/08 03:55:16;;;;;;;4.22;1.02;;;;;;;;;;4939226;28;20118;-68
2023/05/08 03:57:47;;;;;;;4.03;0.90;;;;;;;;;;4921879;28;20049;-67
2023/05/08 04:00:28;;;;;;;3.72;1.00;;;;;;;;;;4945662;28;20042;-69
2023/05/08 04:03:13;;;;;;;4.07;1.20;;;;;;;;;;4936733;28;20039;-67
2023/05/08 04:05:51;;;;;;;6.95;1.38;;;;;;;;;;4936473;28;20039;-68
2023/05/08 04:08:25;;;;;;;5.40;1.20;;;;;;;;;;4942293;28;20660;-68
2023/05/08 04:11:08;;;;;;;3.97;1.02;;;;;;;;;;4937918;28;20022;-68
2023/05/08 04:13:37;;;;;;;5.40;1.30;;;;;;;;;;4943309;28;20276;-68
2023/05/08 04:16:03;;;;;;;5.53;1.10;;;;;;;;;;4938831;28;20371;-68
2023/05/08 04:18:29;;;;;;;;;;;;;;;;;;4943024;28;20105;-67
2023/05/08 04:20:55;;;;;;;6.78;1.20;;;;;;;;;;4922198;28;19952;-68
2023/05/08 04:23:22;;;;;;;5.20;1.17;;;;;;;;;;4948838;28;20039;-69
2023/05/08 04:25:50;;;;;;;4.93;1.20;;;;;;;;;;4928963;28;20049;-68
2023/05/08 04:28:18;;;;;;;6.45;1.50;;;;;;;;;;4945844;28;20622;-68
2023/05/08 04:30:45;;;;;;;5.15;1.30;;;;;;;;;;4948563;28;20030;-68
2023/05/08 04:33:12;;;;;;;5.00;1.40;;;;;;;;;;4950339;28;20041;-68
2023/05/08 04:35:38;;;;;;;7.15;1.30;;;;;;;;;;4946384;28;20089;-67
2023/05/08 04:38:04;;;;;;;5.40;1.30;;;;;;;;;;4946193;28;20455;-67
2023/05/08 04:40:30;;;;;;;;;;;;;;;;;;4934552;28;20037;-67
2023/05/08 04:42:56;;;;;;;4.68;1.20;;;;;;;;;;4947788;28;19918;-68
2023/05/08 04:45:22;;;;;;;5.90;1.38;;;;;;;;;;4932588;28;20030;-68
2023/05/08 04:47:48;;;;;;;7.32;1.42;;;;;;;;;;4930070;28;20518;-67
2023/05/08 04:50:14;;;;;;;;;;;;;;;;;;4950879;28;20034;-68
2023/05/08 04:52:41;;;;;;;8.07;1.67;;;;;;;;;;4951730;28;19914;-69
2023/05/08 04:55:08;;;;;;;9.43;2.25;;;;;;;;;;4946382;28;20780;-69
2023/05/08 04:57:34;;;;;;;6.50;1.60;;;;;;;;;;4946465;28;20038;-67
2023/05/08 05:00:00;;;;;;;5.22;1.50;;;;;;;;;;4933608;28;20492;-68
2023/05/08 05:02:26;;;;;;;5.97;1.55;;;;;;;;;;4950274;28;20065;-68
2023/05/08 05:04:52;;;;;;;6.95;1.27;;;;;;;;;;4947527;28;20328;-68
2023/05/08 05:07:18;;;;;;;10.38;2.17;;;;;;;;;;4950198;28;20031;-68
2023/05/08 05:09:44;;;;;;;11.43;2.30;;;;;;;;;;4945447;28;20810;-67
2023/05/08 05:12:11;;;;;;;7.18;1.85;;;;;;;;;;4934922;28;20630;-68
2023/05/08 05:14:37;;;;;;;10.18;2.20;;;;;;;;;;4942372;28;20035;-69
2023/05/08 05:17:03;;;;;;;6.57;1.60;;;;;;;;;;4945811;28;20023;-68
2023/05/08 05:19:29;;;;;;;9.43;2.10;;;;;;;;;;4945044;28;20035;-68
2023/05/08 05:21:55;;;;;;;7.78;2.10;;;;;;;;;;4943564;28;20497;-68
2023/05/08 05:24:21;;;;;;;7.50;1.90;;;;;;;;;;4945068;28;20031;-68
2023/05/08 05:26:47;;;;;;;;;;;;;;;;;;4948914;28;20046;-69
2023/05/08 05:29:13;;;;;;;10.23;2.17;;;;;;;;;;4946392;28;19926;-68
2023/05/08 05:31:39;;;;;;;8.85;2.63;;;;;;;;;;4942355;28;20553;-69
2023/05/08 05:34:06;;;;;;;8.35;2.30;;;;;;;;;;4947002;28;20031;-68
2023/05/08 05:36:32;;;;;;;7.97;2.35;;;;;;;;;;4927496;28;20031;-68
2023/05/08 05:38:58;;;;;;;9.18;2.13;;;;;;;;;;4939456;28;20038;-67
2023/05/08 05:41:24;;;;;;;16.48;3.22;;;;;;;;;;4944708;28;20053;-69
2023/05/08 05:43:50;;;;;;;9.95;2.78;;;;;;;;;;4929340;28;20031;-68
2023/05/08 05:46:17;;;;;;;9.95;2.83;;;;;;;;;;4935288;28;20058;-69
2023/05/08 05:48:43;;;;;;;9.00;2.80;;;;;;;;;;4945066;28;20093;-68
2023/05/08 05:51:09;;;;;;;9.90;2.55;;;;;;;;;;4946584;28;20035;-68
2023/05/08 05:53:35;;;;;;;5.43;1.83;;;;;;;;;;4925732;28;20027;-68
2023/05/08 05:56:02;;;;;;;7.82;2.25;;;;;;;;;;4947874;28;20572;-67
2023/05/08 05:58:28;;;;;;;8.73;2.50;;;;;;;;;;4944163;28;20034;-69
2023/05/08 06:00:54;;;;;;;9.40;2.63;;;;;;;;;;4926519;28;20280;-68
2023/05/08 06:03:20;;;;;;;10.25;3.85;;;;;;;;;;4931499;28;20160;-68
2023/05/08 06:05:47;;;;;;;8.43;2.40;;;;;;;;;;4944281;28;20100;-67
2023/05/08 06:08:15;;;;;;;8.98;2.38;;;;;;;;;;4946861;28;20030;-68
2023/05/08 06:10:41;;;;;;;9.05;2.75;;;;;;;;;;4925156;28;20495;-68
2023/05/08 06:13:08;;;;;;;11.07;2.63;;;;;;;;;;4947505;28;20544;-69
2023/05/08 06:15:34;;;;;;;7.75;2.40;;;;;;;;;;4943735;28;20384;-69
2023/05/08 06:18:00;;;;;;;9.35;3.85;;;;;;;;;;4946727;28;20495;-69
2023/05/08 06:20:26;;;;;;;8.90;3.10;;;;;;;;;;4945424;28;20037;-68
2023/05/08 06:22:53;;;;;;;9.73;2.70;;;;;;;;;;4941344;28;20023;-70
2023/05/08 06:25:19;;;;;;;9.13;2.72;;;;;;;;;;4927997;28;20034;-67
2023/05/08 06:27:45;;;;;;;6.25;1.90;;;;;;;;;;4944501;28;20268;-68
2023/05/08 06:30:12;;;;;;;10.55;2.80;;;;;;;;;;4931531;28;20031;-69
2023/05/08 06:32:38;;;;;;;11.27;2.70;;;;;;;;;;4943870;28;20097;-68
2023/05/08 06:35:04;;;;;;;7.72;2.13;;;;;;;;;;4935090;28;20039;-68
2023/05/08 06:37:30;;;;;;;9.23;2.90;;;;;;;;;;4946847;28;20066;-68
2023/05/08 06:39:56;;;;;;;15.60;3.03;;;;;;;;;;4944948;28;20128;-69
2023/05/08 06:42:22;;;;;;;14.07;3.00;;;;;;;;;;4943890;28;20026;-69
2023/05/08 06:44:49;;;;;;;12.68;3.25;;;;;;;;;;4946578;28;20824;-68
2023/05/08 06:47:15;;;;;;;13.73;3.42;;;;;;;;;;4948895;28;20035;-68
2023/05/08 06:49:42;;;;;;;11.55;3.05;;;;;;;;;;4927838;28;20037;-67
2023/05/08 06:52:08;;;;;;;8.18;1.80;;;;;;;;;;4930516;28;20339;-67
2023/05/08 06:54:34;;;;;;;8.57;2.33;;;;;;;;;;4945520;28;20076;-67
2023/05/08 06:57:00;;;;;;;8.43;1.88;;;;;;;;;;4944013;28;20491;-68
2023/05/08 06:59:26;;;;;;;8.73;2.03;;;;;;;;;;4947585;28;20092;-68
2023/05/08 07:01:52;;;;;;;9.63;2.15;;;;;;;;;;4941061;28;20035;-68
2023/05/08 07:04:18;;;;;;;7.13;1.60;;;;;;;;;;4946585;28;20489;-68
2023/05/08 07:06:45;;;;;;;6.85;1.77;;;;;;;;;;4940417;28;20227;-68
2023/05/08 07:09:11;;;;;;;10.10;2.45;;;;;;;;;;4947350;28;20137;-68
2023/05/08 07:11:37;;;;;;;10.70;1.92;;;;;;;;;;4932018;28;20037;-68
2023/05/08 07:14:03;;;;;;;11.57;2.17;;;;;;;;;;4941279;28;20042;-68
2023/05/08 07:16:29;;;;;;;9.45;2.03;;;;;;;;;;4930020;28;20607;-68
2023/05/08 07:18:55;;;;;;;10.35;1.90;;;;;;;;;;4942558;28;20054;-67
2023/05/08 07:21:22;;;;;;;7.97;1.95;;;;;;;;;;4940749;28;20034;-68
2023/05/08 07:23:50;;;;;;;7.28;2.17;;;;;;;;;;4919351;28;20030;-68
2023/05/08 07:26:17;;;;;;;8.25;1.88;;;;;;;;;;4925971;28;20449;-68
2023/05/08 07:28:44;;;;;;;6.45;1.77;;;;;;;;;;4935351;28;20730;-69
2023/05/08 07:31:10;;;;;;;6.32;1.60;;;;;;;;;;4925695;28;20037;-70
2023/05/08 07:33:37;;;;;;;10.43;1.95;;;;;;;;;;4919336;28;20679;-67
2023/05/08 07:36:03;;;;;;;7.43;1.80;;;;;;;;;;4939777;28;20426;-69
2023/05/08 07:38:29;;;;;;;8.65;1.60;;;;;;;;;;4938362;28;20034;-69
2023/05/08 07:41:00;;;;;;;7.95;2.55;;;;;;;;;;4939066;28;20058;-69
2023/05/08 07:43:27;;;;;;;8.15;1.90;;;;;;;;;;4941807;28;20027;-68
2023/05/08 07:45:53;;;;;;;7.30;1.60;;;;;;;;;;4935147;28;20162;-67
2023/05/08 07:48:19;;;;;;;7.97;2.30;;;;;;;;;;4938368;28;20031;-67
2023/05/08 07:50:45;;;;;;;8.25;2.60;;;;;;;;;;4920967;28;20031;-67
2023/05/08 07:53:11;;;;;;;10.27;2.22;;;;;;;;;;4944084;28;20098;-68
2023/05/08 07:55:37;;;;;;;6.90;1.95;;;;;;;;;;4936684;28;20413;-68
2023/05/08 07:58:03;;;;;;;8.23;2.78;;;;;;;;;;4921850;28;20732;-67
2023/05/08 08:00:30;;;;;;;7.65;2.30;;;;;;;;;;4941773;28;20587;-69
2023/05/08 08:02:56;;;;;;;9.07;2.50;;;;;;;;;;4938924;28;20492;-69
2023/05/08 08:05:22;;;;;;;8.85;2.65;;;;;;;;;;4939449;28;20539;-69
2023/05/08 08:07:48;;;;;;;8.13;2.00;;;;;;;;;;4921280;28;20544;-69
2023/05/08 08:10:15;;;;;;;8.02;1.80;;;;;;;;;;4938842;28;20028;-68
2023/05/08 08:12:41;;;;;;;6.32;1.70;;;;;;;;;;4920504;28;20570;-67
2023/05/08 08:15:07;;;;;;;8.30;2.10;;;;;;;;;;4945006;28;20034;-69
2023/05/08 08:17:33;;;;;;;6.75;1.70;;;;;;;;;;4936316;28;20542;-67
2023/05/08 08:19:59;;;;;;;6.90;1.52;;;;;;;;;;4939852;28;20034;-68
2023/05/08 08:22:26;;;;;;;7.35;1.42;;;;;;;;;;4937456;28;20057;-67
2023/05/08 08:24:54;;;;;;;9.90;1.92;;;;;;;;;;4932175;28;20031;-69
2023/05/08 08:27:20;;;;;;;11.27;1.70;;;;;;;;;;4936165;28;20153;-69
2023/05/08 08:29:46;;;;;;;7.10;1.60;;;;;;;;;;4937260;28;20834;-69
2023/05/08 08:32:12;;;;;;;7.75;1.85;;;;;;;;;;4935256;28;20431;-71
2023/05/08 08:34:39;;;;;;;8.75;1.73;;;;;;;;;;4922236;28;20111;-68
2023/05/08 08:37:05;;;;;;;7.05;1.95;;;;;;;;;;4943748;28;20116;-69
2023/05/08 08:39:35;;;;;;;8.23;1.65;;;;;;;;;;4942024;28;20975;-68
2023/05/08 08:42:01;;;;;;;8.00;1.63;;;;;;;;;;4943197;28;20465;-69
2023/05/08 08:44:27;;;;;;;9.38;1.58;;;;;;;;;;4927771;28;20023;-68
2023/05/08 08:46:54;;;;;;;7.50;1.80;;;;;;;;;;4934917;28;20038;-69
2023/05/08 08:49:24;;;;;;;8.57;2.42;;;;;;;;;;4939514;28;20095;-68
2023/05/08 08:51:52;;;;;;;7.43;1.80;;;;;;;;;;4931110;28;21005;-68
2023/05/08 08:54:22;;;;;;;7.55;1.65;;;;;;;;;;4924929;28;20061;-70
2023/05/08 08:56:50;;;;;;;7.95;1.98;;;;;;;;;;4933315;28;20625;-69
2023/05/08 08:59:17;;;;;;;7.07;1.88;;;;;;;;;;4937652;28;20023;-69
2023/05/08 09:01:47;;;;;;;6.32;1.50;;;;;;;;;;4935421;28;20089;-68
2023/05/08 09:04:13;;;;;;;10.73;2.10;;;;;;;;;;4925679;28;20031;-68
2023/05/08 09:06:40;;;;;;;7.78;1.90;;;;;;;;;;4936955;28;20714;-68
2023/05/08 09:09:06;;;;;;;5.32;1.40;;;;;;;;;;4940301;28;20113;-68
2023/05/08 09:11:33;;;;;;;6.97;1.50;;;;;;;;;;4937145;28;20042;-67
2023/05/08 09:13:59;;;;;;;6.65;1.80;;;;;;;;;;4943248;28;20031;-68
2023/05/08 09:16:25;;;;;;;7.60;1.73;;;;;;;;;;4945703;28;20043;-68
2023/05/08 09:18:51;;;;;;;8.80;2.08;;;;;;;;;;4940595;28;20042;-69
2023/05/08 09:21:17;;;;;;;7.85;1.95;;;;;;;;;;4944325;28;20117;-68
2023/05/08 09:23:56;;;;;;;6.05;1.60;;;;;;;;;;4937912;28;20037;-68
2023/05/08 09:26:35;;;;;;;7.82;1.60;;;;;;;;;;4923698;28;20227;-69
2023/05/08 09:29:21;;;;;;;8.77;2.50;;;;;;;;;;4942945;28;20042;-68
2023/05/08 09:31:49;;;;;;;8.73;2.20;;;;;;;;;;4940984;28;20796;-68
2023/05/08 09:34:28;;;;;;;7.85;1.85;;;;;;;;;;4926513;28;20346;-70
2023/05/08 09:37:03;;;;;;;8.57;1.73;;;;;;;;;;4928668;28;20089;-68
2023/05/08 09:39:29;;;;;;;8.50;1.63;;;;;;;;;;4943820;28;20065;-69
2023/05/08 09:42:02;;;;;;;5.20;1.42;;;;;;;;;;4942148;28;20027;-69
2023/05/08 09:44:28;;;;;;;6.90;1.60;;;;;;;;;;4944951;28;20093;-68
2023/05/08 09:47:11;;;;;;;10.00;1.77;;;;;;;;;;4938247;28;20447;-68
2023/05/08 09:49:39;;;;;;;7.63;1.65;;;;;;;;;;4943702;28;20043;-67
2023/05/08 09:52:06;;;;;;;7.88;1.63;;;;;;;;;;4944920;28;20022;-68
2023/05/08 09:54:32;;;;;;;8.68;2.20;;;;;;;;;;4943637;28;20030;-68
2023/05/08 09:56:59;;;;;;;9.18;2.00;;;;;;;;;;4927354;28;20505;-69
2023/05/08 09:59:30;;;;;;;13.27;1.92;;;;;;;;;;4940392;28;20038;-69
2023/05/08 10:01:56;;;;;;;9.13;1.63;;;;;;;;;;4939121;28;20031;-69
2023/05/08 10:04:32;;;;;;;6.20;1.40;;;;;;;;;;4946923;28;20325;-69
2023/05/08 10:06:58;;;;;;;6.72;1.70;;;;;;;;;;4929546;28;20555;-69
2023/05/08 10:09:24;;;;;;;7.57;1.58;;;;;;;;;;4945434;28;20493;-69
2023/05/08 10:11:51;;;;;;;7.90;1.70;;;;;;;;;;4948597;28;20055;-68
2023/05/08 10:14:19;;;;;;;7.75;2.03;;;;;;;;;;4948051;28;20038;-68
2023/05/08 10:16:47;;;;;;;9.32;1.90;;;;;;;;;;4927239;28;20485;-69
2023/05/08 10:19:17;;;;;;;6.15;1.55;;;;;;;;;;4950911;28;20645;-69
2023/05/08 10:21:51;;;;;;;8.13;1.70;;;;;;;;;;4941622;28;20026;-68
2023/05/08 10:24:21;;;;;;;6.40;1.55;;;;;;;;;;4930438;28;20074;-68
2023/05/08 10:26:59;;;;;;;6.78;1.45;;;;;;;;;;4927719;28;20047;-68
2023/05/08 10:29:30;;;;;;;6.13;1.60;;;;;;;;;;4930076;28;20130;-69
2023/05/08 10:31:58;;;;;;;7.13;1.48;;;;;;;;;;4942417;28;20151;-68
2023/05/08 10:34:27;;;;;;;5.65;1.30;;;;;;;;;;4948335;28;20133;-68
2023/05/08 10:36:54;;;;;;;9.73;1.40;;;;;;;;;;4945076;28;20253;-68
2023/05/08 10:39:20;;;;;;;7.22;1.80;;;;;;;;;;4932508;28;20057;-68
2023/05/08 10:41:48;;;;;;;6.85;1.58;;;;;;;;;;4944280;28;20031;-69
2023/05/08 10:44:15;;;;;;;7.10;1.40;;;;;;;;;;4947801;28;20528;-69
2023/05/08 10:46:44;;;;;;;5.95;1.50;;;;;;;;;;4942054;28;20129;-68
2023/05/08 10:49:14;;;;;;;6.90;1.33;;;;;;;;;;4945651;28;21038;-68
2023/05/08 10:51:49;;;;;;;7.00;1.65;;;;;;;;;;4937800;28;20146;-67
2023/05/08 10:54:20;;;;;;;6.35;1.42;;;;;;;;;;4946770;28;21102;-68
2023/05/08 10:56:48;;;;;;;6.28;1.60;;;;;;;;;;4947562;28;20027;-68
2023/05/08 10:59:20;;;;;;;6.72;1.40;;;;;;;;;;4950640;28;20118;-70
2023/05/08 11:01:49;;;;;;;5.82;1.27;;;;;;;;;;4923931;28;20097;-68
2023/05/08 11:04:22;;;;;;;7.28;1.60;;;;;;;;;;4942069;28;20061;-68
2023/05/08 11:06:51;;;;;;;6.65;1.38;;;;;;;;;;4942923;28;20054;-69
2023/05/08 11:09:22;;;;;;;9.68;1.45;;;;;;;;;;4943166;28;20560;-69
2023/05/08 11:11:54;;;;;;;9.73;1.60;;;;;;;;;;4949187;28;20038;-69
2023/05/08 11:14:21;;;;;;;7.57;1.48;;;;;;;;;;4945928;28;20046;-69
2023/05/08 11:16:53;;;;;;;5.75;1.40;;;;;;;;;;4946346;28;20276;-68
2023/05/08 11:19:20;;;;;;;5.47;1.20;;;;;;;;;;4928940;28;20078;-67
2023/05/08 11:22:05;;;;;;;7.07;1.70;;;;;;;;;;4942574;28;20035;-68
2023/05/08 11:24:35;;;;;;;7.60;1.67;;;;;;;;;;4927373;28;20433;-69
2023/05/08 11:27:01;;;;;;;6.47;1.42;;;;;;;;;;4929905;28;20482;-69
2023/05/08 11:29:28;;;;;;;7.97;1.85;;;;;;;;;;4942995;28;20050;-69
2023/05/08 11:31:54;;;;;;;7.88;1.75;;;;;;;;;;4924204;28;20034;-68
2023/05/08 11:34:50;;;;;;;7.50;1.90;;;;;;;;;;4927690;28;20077;-68
2023/05/08 11:37:19;;;;;;;6.20;1.80;;;;;;;;;;4867121;29;20812;-68
2023/05/08 11:39:46;;;;;;;7.25;1.50;;;;;;;;;;4880654;29;20335;-68
2023/05/08 11:42:38;;;;;;;7.95;1.70;;;;;;;;;;4884104;29;20433;-68
2023/05/08 11:45:05;;;;;;;6.22;1.50;;;;;;;;;;4862408;29;20080;-68
2023/05/08 11:47:41;;;;;;;6.80;1.73;;;;;;;;;;4883544;29;20223;-68
2023/05/08 11:50:08;;;;;;;7.35;1.73;;;;;;;;;;4883895;29;20633;-68
2023/05/08 11:52:39;;;;;;;8.88;2.13;;;;;;;;;;4865523;29;20188;-68
2023/05/08 11:55:05;;;;;;;6.72;1.88;;;;;;;;;;4884547;29;20069;-67
2023/05/08 11:57:32;;;;;;;8.18;1.80;;;;;;;;;;4885410;29;20040;-69
2023/05/08 11:59:58;;;;;;;7.05;1.65;;;;;;;;;;4886103;29;20052;-68
2023/05/08 12:02:37;;;;;;;6.75;1.73;;;;;;;;;;4863871;29;20247;-68
2023/05/08 12:05:03;;;;;;;6.25;1.63;;;;;;;;;;4885048;29;20035;-67
2023/05/08 12:07:30;;;;;;;7.45;2.05;;;;;;;;;;4885933;29;20052;-68
2023/05/08 12:09:56;;;;;;;7.43;1.60;;;;;;;;;;4882825;29;20100;-67
2023/05/08 12:12:22;;;;;;;8.38;1.77;;;;;;;;;;4869605;29;20632;-68
2023/05/08 12:14:50;;;;;;;8.85;1.90;;;;;;;;;;4937182;28;20090;-69
2023/05/08 12:17:19;;;;;;;8.50;2.00;;;;;;;;;;4931831;28;20350;-68
2023/05/08 12:19:45;;;;;;;9.98;1.92;;;;;;;;;;4930375;28;20092;-68
2023/05/08 12:22:11;;;;;;;8.82;1.73;;;;;;;;;;4945458;28;20577;-68
2023/05/08 12:24:38;;;;;;;9.60;2.10;;;;;;;;;;4942654;28;20173;-67
2023/05/08 12:27:05;;;;;;;8.65;2.15;;;;;;;;;;4945333;28;20043;-67
2023/05/08 12:29:36;;;;;;;10.10;1.90;;;;;;;;;;4931134;28;20046;-68
2023/05/08 12:32:02;;;;;;;6.40;1.63;;;;;;;;;;4943615;28;20027;-68
2023/05/08 12:34:28;;;;;;;8.50;1.80;;;;;;;;;;4947278;28;20534;-68
2023/05/08 12:37:04;;;;;;;7.38;1.65;;;;;;;;;;4941950;28;20035;-69
2023/05/08 12:39:30;;;;;;;;;;;;;;;;;;4944416;28;20037;-68
2023/05/08 12:41:56;;;;;;;8.77;1.73;;;;;;;;;;4922965;28;19919;-68
2023/05/08 12:44:23;;;;;;;8.80;1.80;;;;;;;;;;4946827;28;20109;-68
2023/05/08 12:46:54;;;;;;;10.32;2.20;;;;;;;;;;4933826;28;20049;-69
2023/05/08 12:49:27;;;;;;;7.55;1.80;;;;;;;;;;4952521;28;20351;-69
2023/05/08 12:52:03;;;;;;;8.82;1.60;;;;;;;;;;4929098;28;20153;-69
2023/05/08 12:54:33;;;;;;;10.38;1.88;;;;;;;;;;4950173;28;20054;-68
2023/05/08 12:56:59;;;;;;;8.75;1.63;;;;;;;;;;4944311;28;20507;-69
2023/05/08 12:59:31;;;;;;;11.65;1.70;;;;;;;;;;4949925;28;20074;-68
2023/05/08 13:01:57;;;;;;;6.88;1.55;;;;;;;;;;4949143;28;20679;-69
2023/05/08 13:04:24;;;;;;;11.63;1.90;;;;;;;;;;4946637;28;20431;-69
2023/05/08 13:06:54;;;;;;;9.15;1.50;;;;;;;;;;4948728;28;20035;-68
2023/05/08 13:09:22;;;;;;;12.32;1.75;;;;;;;;;;4944257;28;20093;-71
2023/05/08 13:11:48;;;;;;;9.07;1.92;;;;;;;;;;4946362;28;20027;-69
2023/05/08 13:14:14;;;;;;;7.88;1.80;;;;;;;;;;4945386;28;20377;-69
2023/05/08 13:16:44;;;;;;;8.88;1.75;;;;;;;;;;4943571;28;20038;-68
2023/05/08 13:19:10;;;;;;;7.32;1.55;;;;;;;;;;4943528;28;20035;-68
2023/05/08 13:21:36;;;;;;;8.32;1.65;;;;;;;;;;4945281;28;20935;-69
2023/05/08 13:24:02;;;;;;;6.13;1.30;;;;;;;;;;4947102;28;20491;-67
2023/05/08 13:26:28;;;;;;;6.22;1.20;;;;;;;;;;4949774;28;20093;-69
2023/05/08 13:28:55;;;;;;;8.68;2.00;;;;;;;;;;4928523;28;21010;-69
2023/05/08 13:31:21;;;;;;;11.50;1.55;;;;;;;;;;4942718;28;20034;-69
2023/05/08 13:33:47;;;;;;;6.85;1.50;;;;;;;;;;4926236;28;20118;-68
2023/05/08 13:36:13;;;;;;;8.85;1.52;;;;;;;;;;4931656;28;20038;-68
2023/05/08 13:38:39;;;;;;;7.72;1.58;;;;;;;;;;4945027;28;20032;-68
2023/05/08 13:41:06;;;;;;;9.65;1.73;;;;;;;;;;4947929;28;20630;-69
2023/05/08 13:43:34;;;;;;;6.68;1.60;;;;;;;;;;4946518;28;20372;-69
2023/05/08 13:46:00;;;;;;;8.57;1.50;;;;;;;;;;4945910;28;20097;-69
2023/05/08 13:48:26;;;;;;;7.38;1.48;;;;;;;;;;4949134;28;20511;-69
2023/05/08 13:50:53;;;;;;;8.80;1.55;;;;;;;;;;4945105;28;20878;-67
2023/05/08 13:53:19;;;;;;;6.63;1.30;;;;;;;;;;4948973;28;20142;-68
2023/05/08 13:55:48;;;;;;;9.90;1.63;;;;;;;;;;4944748;28;20075;-69
2023/05/08 13:58:14;;;;;;;8.73;1.48;;;;;;;;;;4950661;28;20069;-68
2023/05/08 14:00:40;;;;;;;7.45;1.60;;;;;;;;;;4944227;28;20046;-68
2023/05/08 14:03:07;;;;;;;10.13;1.50;;;;;;;;;;4947138;28;20089;-67
2023/05/08 14:05:34;;;;;;;8.82;1.75;;;;;;;;;;4943971;28;20034;-68
2023/05/08 14:08:00;;;;;;;6.30;1.35;;;;;;;;;;4930264;28;20090;-68
2023/05/08 14:10:26;;;;;;;8.70;1.80;;;;;;;;;;4948310;28;20089;-68
2023/05/08 14:12:52;;;;;;;11.70;1.40;;;;;;;;;;4943032;28;20645;-68
2023/05/08 14:15:18;;;;;;;8.82;1.48;;;;;;;;;;4950027;28;20041;-69
2023/05/08 14:17:44;;;;;;;7.70;1.48;;;;;;;;;;4939078;28;20548;-69
2023/05/08 14:20:11;;;;;;;7.53;1.60;;;;;;;;;;4930991;28;20149;-70
2023/05/08 14:22:37;;;;;;;7.82;1.30;;;;;;;;;;4928790;28;20123;-68
2023/05/08 14:25:03;;;;;;;10.52;1.58;;;;;;;;;;4950569;28;20031;-68
2023/05/08 14:27:29;;;;;;;8.02;1.48;;;;;;;;;;4947285;28;20385;-69
2023/05/08 14:29:56;;;;;;;10.93;1.60;;;;;;;;;;4946855;28;20385;-70
2023/05/08 14:32:22;;;;;;;7.25;1.50;;;;;;;;;;4944651;28;20043;-71
2023/05/08 14:34:49;;;;;;;7.28;1.52;;;;;;;;;;4930163;28;20069;-71
2023/05/08 14:37:16;;;;;;;7.28;1.80;;;;;;;;;;4949998;28;20543;-69
2023/05/08 14:39:43;;;;;;;8.55;1.90;;;;;;;;;;4940692;28;20042;-70
2023/05/08 14:42:10;;;;;;;7.57;1.35;;;;;;;;;;4948105;28;20023;-70
2023/05/08 14:44:36;;;;;;;7.82;1.73;;;;;;;;;;4928239;28;20037;-68
2023/05/08 14:47:02;;;;;;;8.70;1.52;;;;;;;;;;4936664;28;20030;-70
2023/05/08 14:49:30;;;;;;;8.35;1.67;;;;;;;;;;4944422;28;20042;-69